Rolla, Canada
Current Conditions -  °F | °C
As of 7:00 AM on Thursday 29 Jan 2015 (Local Time) from CYDQ Reporting Station
Overcast Overcast  
Wind Chill: 10°   Ceiling: 22000
Heat Index: 10°   Visibility: 9mi
Dew Point:   Wind: 3mph
Humidity: 85%   Direction: 270°W
Pressure: 30.15"   Gusts: NA
Location:  55.9°N, 120.14°W
Report Text: CYDQ 291400Z AUTO 27003KT 9SM OVC220 M12/M14 A3015 RMK SLP269
Loading
Personal Weather Stations






























Interactive Weather Map New forecast layout! Learn more

10-Day Weather Forecast

Advertisements
Track Severe Weather on mobile